Time;durP1;ratioP1;P1;durP2;ratioP2;P2;SDS_P1;SDS_P2;PMS_P1;PMS_P2;Temp;Humidity;BMP_temperature;BMP_pressure;BME280_temperature;BME280_humidity;BME280_pressure;Samples;Min_cycle;Max_cycle;Signal;HPM_P1;HPM_P2
2022/08/21 00:00:15;;;;;;;10.18;7.05;;;15.30;99.90;;;;;;6130753;23;20048;-81
2022/08/21 00:03:03;;;;;;;11.32;7.22;;;15.20;99.90;;;;;;6130956;23;20009;-81
2022/08/21 00:05:31;;;;;;;9.80;6.82;;;15.20;99.90;;;;;;6130982;23;20060;-81
2022/08/21 00:07:57;;;;;;;12.95;6.57;;;15.10;99.90;;;;;;6130500;23;20033;-81
2022/08/21 00:10:23;;;;;;;15.73;7.43;;;15.00;99.90;;;;;;6130432;23;20009;-81
2022/08/21 00:12:50;;;;;;;12.25;7.82;;;14.90;99.90;;;;;;6130665;23;20006;-81
2022/08/21 00:15:21;;;;;;;15.75;7.43;;;14.90;99.90;;;;;;6154771;23;20434;-82
2022/08/21 00:17:46;;;;;;;13.30;7.40;;;14.80;99.90;;;;;;6130384;23;20013;-82
2022/08/21 00:20:16;;;;;;;14.57;7.47;;;14.70;99.90;;;;;;6130020;23;20032;-81
2022/08/21 00:26:04;;;;;;;;;;;14.60;99.90;;;;;;6155411;23;20016;-81
2022/08/21 00:28:30;;;;;;;13.75;8.43;;;14.60;99.90;;;;;;6155017;23;19912;-82
2022/08/21 00:30:56;;;;;;;12.85;8.32;;;14.60;99.90;;;;;;6130464;23;20037;-81
2022/08/21 00:33:23;;;;;;;10.70;7.60;;;14.50;99.90;;;;;;6130150;23;20017;-81
2022/08/21 00:35:49;;;;;;;13.68;8.25;;;14.50;99.90;;;;;;6155047;23;20002;-81
2022/08/21 00:38:14;;;;;;;13.70;8.57;;;14.50;99.90;;;;;;6154769;23;20017;-81
2022/08/21 00:40:50;;;;;;;10.80;8.18;;;14.40;99.90;;;;;;6130446;23;20088;-82
2022/08/21 00:43:20;;;;;;;15.85;9.05;;;14.40;99.90;;;;;;6129735;23;20148;-81
2022/08/21 00:45:46;;;;;;;18.77;9.27;;;14.30;99.90;;;;;;6154736;23;20394;-81
2022/08/21 00:48:12;;;;;;;16.13;9.10;;;14.30;99.90;;;;;;6154738;23;20009;-81
2022/08/21 00:50:46;;;;;;;14.13;8.90;;;14.20;99.90;;;;;;6130275;23;20025;-81
2022/08/21 00:53:13;;;;;;;12.82;9.20;;;14.20;99.90;;;;;;6130251;23;20018;-81
2022/08/21 00:55:40;;;;;;;14.23;10.25;;;14.20;99.90;;;;;;6129845;23;20045;-81
2022/08/21 00:58:09;;;;;;;16.30;8.90;;;14.20;99.90;;;;;;6129452;23;20092;-81
2022/08/21 01:00:38;;;;;;;16.77;9.75;;;14.30;99.90;;;;;;6154556;23;20039;-81
2022/08/21 01:03:11;;;;;;;18.85;10.13;;;14.30;99.90;;;;;;6129575;23;20068;-81
2022/08/21 01:05:37;;;;;;;17.67;10.13;;;14.20;99.90;;;;;;6154783;23;20457;-81
2022/08/21 01:08:04;;;;;;;12.07;9.93;;;14.10;99.90;;;;;;6129801;23;20010;-81
2022/08/21 01:10:30;;;;;;;15.18;10.20;;;14.10;99.90;;;;;;6129663;23;20338;-81
2022/08/21 01:12:57;;;;;;;14.05;9.80;;;14.00;99.90;;;;;;6129910;23;20098;-81
2022/08/21 01:15:33;;;;;;;15.27;9.98;;;13.90;99.90;;;;;;6154310;23;20012;-81
2022/08/21 01:17:59;;;;;;;18.70;11.20;;;13.90;99.90;;;;;;6129287;23;20013;-81
2022/08/21 01:20:26;;;;;;;19.60;11.20;;;13.80;99.90;;;;;;6154644;23;20093;-81
2022/08/21 01:22:55;;;;;;;20.75;11.88;;;13.70;99.90;;;;;;6129928;23;20025;-81
2022/08/21 01:25:21;;;;;;;17.48;10.98;;;13.70;99.90;;;;;;6129411;23;20064;-81
2022/08/21 01:27:46;;;;;;;18.75;11.77;;;13.60;99.90;;;;;;6129810;23;20009;-81
2022/08/21 01:30:22;;;;;;;17.48;11.75;;;13.50;99.90;;;;;;6129572;23;20032;-81
2022/08/21 01:32:49;;;;;;;21.70;12.23;;;13.40;99.90;;;;;;6154695;23;20009;-81
2022/08/21 01:35:16;;;;;;;20.55;11.98;;;13.30;99.90;;;;;;6154615;23;20008;-81
2022/08/21 01:37:41;;;;;;;16.98;11.98;;;13.30;99.90;;;;;;6129783;23;20457;-81
2022/08/21 01:40:08;;;;;;;16.92;11.95;;;13.30;99.90;;;;;;6154517;23;20006;-81
2022/08/21 01:42:35;;;;;;;19.40;11.52;;;13.30;99.90;;;;;;6129934;23;20350;-81
2022/08/21 01:45:00;;;;;;;20.48;12.70;;;13.20;99.90;;;;;;6129575;23;20052;-81
2022/08/21 01:47:27;;;;;;;24.65;13.32;;;13.10;99.90;;;;;;6129091;23;20315;-81
2022/08/21 01:49:52;;;;;;;19.08;12.63;;;13.00;99.90;;;;;;6129033;23;20015;-81
2022/08/21 01:52:19;;;;;;;16.35;12.82;;;13.00;99.90;;;;;;6128466;23;20017;-81
2022/08/21 01:54:45;;;;;;;20.77;12.48;;;13.00;99.90;;;;;;6152950;23;20017;-81
2022/08/21 01:57:13;;;;;;;25.95;13.65;;;12.80;99.90;;;;;;6155352;23;20040;-81
2022/08/21 01:59:39;;;;;;;24.80;12.68;;;12.70;99.90;;;;;;6154070;23;20002;-81
2022/08/21 02:02:14;;;;;;;23.48;13.45;;;12.60;99.90;;;;;;6129698;23;20025;-81
2022/08/21 02:04:40;;;;;;;27.05;16.92;;;12.50;99.90;;;;;;6129054;23;20016;-81
2022/08/21 02:07:05;;;;;;;25.05;15.82;;;12.40;99.90;;;;;;6128365;23;20009;-81
2022/08/21 02:09:31;;;;;;;22.77;15.02;;;12.40;99.90;;;;;;6127043;23;20005;-81
2022/08/21 02:11:57;;;;;;;27.17;14.73;;;12.40;99.90;;;;;;6129228;23;20005;-81
2022/08/21 02:14:23;;;;;;;24.90;14.55;;;12.30;99.90;;;;;;6129300;23;20382;-81
2022/08/21 02:16:49;;;;;;;24.20;13.98;;;12.30;99.90;;;;;;6129098;23;20005;-81
2022/08/21 02:19:16;;;;;;;23.92;15.25;;;12.20;99.90;;;;;;6152602;23;20049;-81
2022/08/21 02:21:42;;;;;;;20.15;14.52;;;12.20;99.90;;;;;;6129236;23;20009;-81
2022/08/21 02:24:11;;;;;;;21.33;14.20;;;12.10;99.90;;;;;;6153362;23;20009;-80
2022/08/21 02:26:37;;;;;;;31.38;15.40;;;12.10;99.90;;;;;;6128999;23;20013;-81
2022/08/21 02:29:04;;;;;;;23.83;15.68;;;12.00;99.90;;;;;;6128990;23;20012;-81
2022/08/21 02:31:31;;;;;;;24.48;15.70;;;12.00;99.90;;;;;;6128874;23;20006;-81
2022/08/21 02:33:57;;;;;;;25.27;15.35;;;12.00;99.90;;;;;;6128067;23;20005;-81
2022/08/21 02:36:22;;;;;;;22.13;15.25;;;11.90;99.90;;;;;;6153722;23;20063;-80
2022/08/21 02:38:49;;;;;;;23.58;15.35;;;11.90;99.90;;;;;;6129136;23;20056;-81
2022/08/21 02:41:19;;;;;;;27.65;15.55;;;11.80;99.90;;;;;;6128840;23;20460;-81
2022/08/21 02:43:45;;;;;;;24.40;15.23;;;11.80;99.90;;;;;;6127980;23;20612;-80
2022/08/21 02:46:15;;;;;;;29.52;17.40;;;11.70;99.90;;;;;;6129000;23;20013;-81
2022/08/21 02:48:41;;;;;;;29.77;18.08;;;11.70;99.90;;;;;;6153197;23;20016;-81
2022/08/21 02:51:10;;;;;;;28.25;17.08;;;11.60;99.90;;;;;;6128954;23;20456;-81
2022/08/21 02:53:37;;;;;;;32.78;17.75;;;11.60;99.90;;;;;;6128544;23;20029;-81
2022/08/21 02:56:07;;;;;;;29.55;18.85;;;11.60;99.90;;;;;;6129024;23;20001;-81
2022/08/21 02:58:36;;;;;;;31.60;20.17;;;11.60;99.90;;;;;;6153350;23;20395;-81
2022/08/21 03:01:03;;;;;;;31.63;19.98;;;11.70;99.90;;;;;;6128358;23;20013;-81
2022/08/21 03:03:29;;;;;;;30.50;20.92;;;11.70;99.90;;;;;;6128557;23;20014;-81
2022/08/21 03:05:55;;;;;;;28.80;20.38;;;11.70;99.90;;;;;;6129372;23;20092;-81
2022/08/21 03:08:21;;;;;;;27.92;19.65;;;11.70;99.90;;;;;;6153964;23;20048;-81
2022/08/21 03:10:50;;;;;;;29.27;20.13;;;11.70;99.90;;;;;;6155490;23;20072;-81
2022/08/21 03:13:17;;;;;;;43.10;20.95;;;11.70;99.90;;;;;;6153961;23;20028;-81
2022/08/21 03:15:44;;;;;;;38.97;20.08;;;11.70;99.90;;;;;;6129543;23;20036;-81
2022/08/21 03:18:11;;;;;;;29.67;19.30;;;11.60;99.90;;;;;;6153768;23;20714;-81
2022/08/21 03:20:39;;;;;;;31.60;19.77;;;11.60;99.90;;;;;;6130522;23;20032;-81
2022/08/21 03:23:05;;;;;;;30.58;19.63;;;11.50;99.90;;;;;;6155649;23;20016;-81
2022/08/21 03:25:32;;;;;;;29.83;19.10;;;11.50;99.90;;;;;;6131009;23;20009;-81
2022/08/21 03:28:00;;;;;;;30.50;18.58;;;11.50;99.90;;;;;;6131118;23;20013;-81
2022/08/21 03:30:26;;;;;;;35.75;20.70;;;11.40;99.90;;;;;;6130915;23;20096;-81
2022/08/21 03:32:52;;;;;;;41.95;21.15;;;11.40;99.90;;;;;;6131321;23;20439;-82
2022/08/21 03:35:19;;;;;;;37.80;21.75;;;11.40;99.90;;;;;;6130938;23;20009;-81
2022/08/21 03:37:45;;;;;;;39.47;23.00;;;11.50;99.90;;;;;;6130782;23;20088;-81
2022/08/21 03:40:12;;;;;;;40.47;22.80;;;11.50;99.90;;;;;;6131148;23;20006;-81
2022/08/21 03:42:38;;;;;;;41.47;21.60;;;11.50;99.90;;;;;;6131124;23;20468;-81
2022/08/21 03:45:05;;;;;;;36.33;21.50;;;11.50;99.90;;;;;;6155365;23;20006;-81
2022/08/21 03:47:31;;;;;;;33.00;20.33;;;11.50;99.90;;;;;;6156651;23;20018;-81
2022/08/21 03:49:57;;;;;;;34.28;20.15;;;11.60;99.90;;;;;;6130575;23;20095;-81
2022/08/21 03:56:09;;;;;;;32.53;21.13;;;11.50;99.90;;;;;;6157385;23;20016;-81
2022/08/21 03:58:36;;;;;;;37.13;22.00;;;11.50;99.90;;;;;;6131032;23;20121;-81
2022/08/21 04:01:04;;;;;;;38.45;20.95;;;11.50;99.90;;;;;;6130918;23;20016;-81
2022/08/21 04:03:30;;;;;;;31.35;20.45;;;11.40;99.90;;;;;;6130247;23;20010;-81
2022/08/21 04:05:56;;;;;;;38.63;23.50;;;11.40;99.90;;;;;;6155665;23;20017;-81
2022/08/21 04:08:21;;;;;;;35.13;21.42;;;11.40;99.90;;;;;;6130532;23;20016;-81
2022/08/21 04:10:50;;;;;;;31.83;19.65;;;11.40;99.90;;;;;;6155453;23;20374;-81
2022/08/21 04:13:40;;;;;;;33.60;20.23;;;11.40;99.90;;;;;;6155042;23;20010;-81
2022/08/21 04:16:07;;;;;;;32.25;20.00;;;11.40;99.90;;;;;;6130400;23;20633;-81
2022/08/21 04:18:33;;;;;;;39.47;20.65;;;11.30;99.90;;;;;;6154895;23;20311;-81
2022/08/21 04:20:59;;;;;;;36.05;21.02;;;11.30;99.90;;;;;;6129995;23;20021;-81
2022/08/21 04:23:26;;;;;;;33.47;19.42;;;11.30;99.90;;;;;;6154406;23;20013;-81
2022/08/21 04:25:53;;;;;;;37.45;21.42;;;11.30;99.90;;;;;;6129927;23;20009;-82
2022/08/21 04:28:44;;;;;;;46.30;24.83;;;11.30;99.90;;;;;;6130762;23;20025;-82
2022/08/21 04:31:10;;;;;;;37.60;22.20;;;11.30;99.90;;;;;;6154906;23;20013;-81
2022/08/21 04:33:36;;;;;;;37.65;22.75;;;11.30;99.90;;;;;;6130715;23;20010;-82
2022/08/21 04:36:02;;;;;;;40.20;21.67;;;11.30;99.90;;;;;;6130617;23;20041;-82
2022/08/21 04:38:28;;;;;;;38.17;23.10;;;11.30;99.90;;;;;;6130836;23;20020;-82
2022/08/21 04:40:54;;;;;;;42.60;22.20;;;11.30;99.90;;;;;;6130554;23;20010;-82
2022/08/21 04:43:21;;;;;;;33.42;20.83;;;11.30;99.90;;;;;;6130257;23;20072;-82
2022/08/21 04:45:49;;;;;;;43.50;24.02;;;11.30;99.90;;;;;;6155290;23;20080;-82
2022/08/21 04:52:02;;;;;;;42.28;23.73;;;11.40;99.90;;;;;;6156608;23;20506;-82
2022/08/21 04:54:29;;;;;;;39.35;24.75;;;11.40;99.90;;;;;;6130775;23;20692;-82
2022/08/21 04:57:03;;;;;;;44.22;26.10;;;11.50;99.90;;;;;;6155380;23;20013;-82
2022/08/21 04:59:37;;;;;;;42.15;25.23;;;11.50;99.90;;;;;;6154250;23;20013;-82
2022/08/21 05:02:06;;;;;;;44.33;24.42;;;11.60;99.90;;;;;;6129805;23;20013;-82
2022/08/21 05:04:36;;;;;;;50.08;23.40;;;11.60;99.90;;;;;;6129506;23;20048;-82
2022/08/21 05:07:07;;;;;;;36.97;22.08;;;11.70;99.90;;;;;;6130044;23;20063;-82
2022/08/21 05:09:34;;;;;;;35.28;22.42;;;11.70;99.90;;;;;;6154800;23;20013;-82
2022/08/21 05:12:02;;;;;;;44.00;25.10;;;11.70;99.90;;;;;;6130400;23;20338;-81
2022/08/21 05:14:27;;;;;;;35.67;22.95;;;11.80;99.90;;;;;;6155314;23;20037;-82
2022/08/21 05:17:21;;;;;;;38.53;23.85;;;11.80;99.90;;;;;;6130602;23;20009;-82
2022/08/21 05:19:47;;;;;;;38.38;23.48;;;12.00;99.90;;;;;;6154343;23;20033;-82
2022/08/21 05:22:19;;;;;;;40.13;24.30;;;12.00;99.90;;;;;;6129965;23;20014;-82
2022/08/21 05:24:45;;;;;;;37.03;22.58;;;12.10;99.90;;;;;;6130790;23;20036;-82
2022/08/21 05:27:11;;;;;;;43.20;24.30;;;12.20;99.90;;;;;;6130716;23;20006;-82
2022/08/21 05:29:36;;;;;;;36.20;21.35;;;12.30;99.90;;;;;;6130823;23;20081;-82
2022/08/21 05:32:09;;;;;;;36.78;21.70;;;12.40;99.90;;;;;;6130132;23;20012;-82
2022/08/21 05:34:35;;;;;;;37.50;22.63;;;12.60;99.90;;;;;;6129478;23;20006;-82
2022/08/21 05:37:19;;;;;;;31.38;21.05;;;12.70;99.90;;;;;;6130085;23;20094;-82
2022/08/21 05:39:45;;;;;;;37.05;22.52;;;12.80;99.90;;;;;;6154248;23;20442;-82
2022/08/21 05:42:10;;;;;;;30.65;20.05;;;12.90;99.90;;;;;;6129870;23;20016;-81
2022/08/21 05:44:36;;;;;;;36.35;22.50;;;13.10;99.90;;;;;;6129499;23;20112;-82
2022/08/21 05:47:07;;;;;;;34.53;20.23;;;13.10;99.90;;;;;;6129885;23;20006;-82
2022/08/21 05:49:32;;;;;;;38.80;22.30;;;13.30;99.90;;;;;;6154010;23;20338;-82
2022/08/21 05:51:58;;;;;;;32.88;20.38;;;13.40;99.90;;;;;;6129569;23;20016;-82
2022/08/21 05:54:24;;;;;;;30.38;19.25;;;13.50;99.90;;;;;;6153231;23;20003;-82
2022/08/21 05:56:50;;;;;;;30.75;19.40;;;13.70;99.90;;;;;;6129341;23;20422;-82
2022/08/21 05:59:15;;;;;;;24.08;17.88;;;13.80;99.90;;;;;;6155862;23;20453;-82
2022/08/21 06:01:41;;;;;;;30.13;17.77;;;14.00;99.90;;;;;;6129988;23;20152;-83
2022/08/21 06:04:07;;;;;;;27.75;17.13;;;14.10;99.90;;;;;;6154359;23;20013;-82
2022/08/21 06:06:34;;;;;;;28.30;18.75;;;14.30;99.90;;;;;;6130290;23;20092;-82
2022/08/21 06:09:00;;;;;;;25.20;16.85;;;14.40;99.90;;;;;;6154188;23;20446;-82
2022/08/21 06:11:26;;;;;;;22.90;15.98;;;14.60;99.90;;;;;;6129530;23;20044;-81
2022/08/21 06:13:52;;;;;;;28.27;16.95;;;14.70;99.90;;;;;;6129422;23;20040;-82
2022/08/21 06:16:45;;;;;;;24.48;16.90;;;14.90;99.90;;;;;;6129608;23;20089;-82
2022/08/21 06:19:12;;;;;;;25.60;16.83;;;15.10;99.90;;;;;;6129618;23;20442;-82
2022/08/21 06:21:38;;;;;;;22.30;16.67;;;15.20;99.90;;;;;;6154342;23;20016;-82
2022/08/21 06:24:04;;;;;;;23.90;16.70;;;15.40;99.90;;;;;;6154307;23;20434;-82
2022/08/21 06:26:31;;;;;;;24.60;16.52;;;15.50;99.90;;;;;;6129867;23;20036;-82
2022/08/21 06:28:57;;;;;;;28.02;17.08;;;15.70;99.90;;;;;;6129500;23;20013;-82
2022/08/21 06:31:24;;;;;;;23.58;16.02;;;16.00;99.90;;;;;;6129118;23;20121;-82
2022/08/21 06:33:51;;;;;;;24.42;16.85;;;16.30;99.90;;;;;;6128972;23;20006;-83
2022/08/21 06:36:17;;;;;;;27.00;15.95;;;16.40;99.90;;;;;;6129418;23;20057;-82
2022/08/21 06:38:43;;;;;;;25.25;14.88;;;16.50;99.90;;;;;;6129374;23;20355;-82
2022/08/21 06:41:09;;;;;;;22.60;15.25;;;16.70;99.90;;;;;;6153895;23;20311;-83
2022/08/21 06:43:35;;;;;;;20.98;14.57;;;16.80;99.90;;;;;;6127123;23;20092;-82
2022/08/21 06:46:01;;;;;;;22.58;13.85;;;16.90;99.90;;;;;;6154917;23;20008;-82
2022/08/21 06:48:26;;;;;;;21.00;14.07;;;17.00;99.90;;;;;;6153404;23;20005;-82
2022/08/21 06:50:52;;;;;;;20.65;14.32;;;17.10;99.90;;;;;;6153527;23;20005;-82
2022/08/21 06:53:20;;;;;;;19.55;14.20;;;17.20;99.90;;;;;;6129125;23;20024;-83
2022/08/21 06:55:47;;;;;;;19.23;14.43;;;17.30;99.90;;;;;;6131336;23;20358;-82
2022/08/21 06:58:13;;;;;;;21.63;13.57;;;17.50;99.90;;;;;;6155883;23;20005;-82
2022/08/21 07:00:45;;;;;;;20.58;14.18;;;17.60;99.90;;;;;;6130857;23;20013;-82
2022/08/21 07:03:51;;;;;;;23.10;13.35;;;17.80;99.90;;;;;;6130536;23;20016;-83
2022/08/21 07:06:17;;;;;;;17.67;12.32;;;17.90;99.90;;;;;;6131063;23;20051;-83
2022/08/21 07:08:43;;;;;;;18.05;11.63;;;18.10;99.90;;;;;;6131212;23;20010;-82
2022/08/21 07:11:27;;;;;;;17.33;11.73;;;18.10;99.90;;;;;;6155443;23;20013;-82
2022/08/21 07:13:54;;;;;;;13.52;10.52;;;18.20;99.90;;;;;;6157003;23;20348;-82
2022/08/21 07:16:23;;;;;;;14.73;9.98;;;18.20;99.90;;;;;;6131324;23;20013;-82
2022/08/21 07:19:07;;;;;;;16.35;10.68;;;18.30;99.90;;;;;;6156437;23;20012;-82
2022/08/21 07:21:33;;;;;;;15.10;9.45;;;18.40;99.90;;;;;;6130871;23;20010;-82
2022/08/21 07:23:59;;;;;;;16.73;10.70;;;18.50;99.90;;;;;;6130145;23;20013;-82
2022/08/21 07:26:25;;;;;;;14.25;9.77;;;18.50;99.90;;;;;;6130752;23;20036;-82
2022/08/21 07:28:52;;;;;;;17.88;10.35;;;18.60;99.90;;;;;;6153926;23;20446;-82
2022/08/21 07:31:21;;;;;;;12.10;9.48;;;18.70;99.90;;;;;;6155650;23;20016;-83
2022/08/21 07:33:46;;;;;;;12.20;9.77;;;18.80;99.90;;;;;;6155439;23;20593;-82
2022/08/21 07:36:13;;;;;;;15.20;10.77;;;18.90;99.90;;;;;;6130162;23;20070;-83
2022/08/21 07:38:40;;;;;;;14.00;9.40;;;18.90;99.90;;;;;;6153976;23;20037;-82
2022/08/21 07:41:13;;;;;;;13.75;9.25;;;18.90;99.90;;;;;;6155680;23;20009;-83
2022/08/21 07:43:41;;;;;;;12.35;8.88;;;18.90;99.90;;;;;;6154372;23;20021;-83
2022/08/21 07:46:06;;;;;;;14.27;8.57;;;19.00;99.90;;;;;;6155554;23;20009;-82
2022/08/21 07:48:33;;;;;;;19.52;8.10;;;19.10;99.90;;;;;;6131097;23;20013;-83
2022/08/21 07:51:04;;;;;;;15.75;8.15;;;19.10;99.90;;;;;;6130665;23;20005;-83
2022/08/21 07:53:30;;;;;;;12.85;7.88;;;19.20;99.90;;;;;;6131238;23;20002;-83
2022/08/21 07:55:57;;;;;;;12.23;7.88;;;19.30;99.90;;;;;;6130896;23;20434;-82
2022/08/21 07:58:23;;;;;;;13.43;6.97;;;19.30;99.90;;;;;;6131856;23;20107;-83
2022/08/21 08:00:49;;;;;;;8.73;6.70;;;19.30;99.90;;;;;;6132091;23;20115;-82
2022/08/21 08:03:15;;;;;;;15.30;7.43;;;19.40;99.90;;;;;;6156735;23;20320;-83
2022/08/21 08:05:40;;;;;;;13.77;7.65;;;19.50;99.90;;;;;;6131326;23;20009;-82
2022/08/21 08:08:07;;;;;;;11.23;7.22;;;19.50;99.90;;;;;;6132118;23;20413;-82
2022/08/21 08:10:33;;;;;;;11.43;7.43;;;19.70;99.90;;;;;;6157104;23;20008;-82
2022/08/21 08:12:59;;;;;;;13.50;7.75;;;19.70;99.90;;;;;;6156530;23;20016;-82
2022/08/21 08:15:26;;;;;;;16.23;7.45;;;19.80;99.90;;;;;;6131922;23;20346;-82
2022/08/21 08:17:54;;;;;;;10.38;6.68;;;19.90;99.90;;;;;;6156462;23;20068;-83
2022/08/21 08:20:22;;;;;;;11.13;6.65;;;19.90;99.90;;;;;;6132265;23;20015;-81
2022/08/21 08:22:49;;;;;;;11.05;6.10;;;20.00;99.90;;;;;;6156765;23;20021;-82
2022/08/21 08:25:16;;;;;;;13.45;7.50;;;20.00;99.90;;;;;;6131838;23;20013;-83
2022/08/21 08:27:42;;;;;;;12.27;6.85;;;20.10;99.90;;;;;;6156998;23;20084;-82
2022/08/21 08:30:11;;;;;;;13.15;6.05;;;20.10;99.90;;;;;;6131110;23;20040;-83
2022/08/21 08:36:33;;;;;;;14.57;4.57;;;20.30;99.90;;;;;;6158156;23;20550;-82
2022/08/21 08:38:59;;;;;;;10.35;4.63;;;20.50;99.90;;;;;;6131749;23;20014;-83
2022/08/21 08:41:25;;;;;;;12.88;5.47;;;20.60;99.90;;;;;;6131562;23;20027;-82
2022/08/21 08:43:54;;;;;;;11.40;4.90;;;20.60;99.90;;;;;;6131010;23;20009;-82
2022/08/21 08:46:30;;;;;;;10.82;5.40;;;20.70;99.90;;;;;;6131871;23;20012;-82
2022/08/21 08:49:07;;;;;;;10.75;4.72;;;20.70;99.90;;;;;;6131357;23;20017;-83
2022/08/21 08:51:58;;;;;;;18.15;5.07;;;20.80;99.90;;;;;;6130926;23;20005;-82
2022/08/21 08:54:32;;;;;;;10.90;5.10;;;20.90;99.90;;;;;;6155767;23;20013;-83
2022/08/21 08:57:01;;;;;;;13.75;5.28;;;21.00;99.90;;;;;;6131368;23;20006;-82
2022/08/21 08:59:42;;;;;;;14.43;5.90;;;21.00;99.90;;;;;;6155745;23;20013;-83
2022/08/21 09:02:14;;;;;;;17.98;6.07;;;21.30;99.90;;;;;;6131504;23;20058;-83
2022/08/21 09:04:40;;;;;;;10.95;4.85;;;22.00;99.90;;;;;;6131088;23;20011;-82
2022/08/21 09:07:26;;;;;;;8.18;4.57;;;23.70;99.90;;;;;;6130332;23;20020;-83
2022/08/21 09:10:18;;;;;;;12.90;4.55;;;25.40;99.90;;;;;;6145112;23;20017;-83
2022/08/21 09:13:02;;;;;;;14.65;4.63;;;27.20;99.90;;;;;;6131266;23;20021;-83
2022/08/21 09:15:34;;;;;;;8.90;4.75;;;28.00;97.40;;;;;;6131580;23;20388;-83
2022/08/21 09:18:38;;;;;;;8.98;4.95;;;28.10;95.80;;;;;;6156601;23;20013;-83
2022/08/21 09:21:40;;;;;;;10.90;4.90;;;28.00;94.90;;;;;;6131888;23;20496;-83
2022/08/21 09:24:10;;;;;;;8.88;4.50;;;28.40;93.30;;;;;;6137462;23;20065;-84
2022/08/21 09:30:31;;;;;;;10.45;4.22;;;28.80;91.40;;;;;;6152362;23;20087;-83
2022/08/21 09:32:57;;;;;;;10.50;4.50;;;29.50;90.40;;;;;;6131284;23;20096;-83
2022/08/21 09:35:25;;;;;;;8.48;3.90;;;29.70;87.50;;;;;;6131568;23;20010;-83
2022/08/21 09:37:59;;;;;;;9.38;4.22;;;30.00;86.20;;;;;;6155991;23;20027;-83
2022/08/21 09:40:33;;;;;;;7.53;4.40;;;30.80;82.10;;;;;;6131053;23;20017;-83
2022/08/21 09:43:04;;;;;;;5.97;3.97;;;31.10;82.20;;;;;;6130843;23;20481;-83
2022/08/21 09:45:30;;;;;;;7.13;3.95;;;30.70;80.30;;;;;;6155490;23;20617;-84
2022/08/21 09:48:07;;;;;;;11.25;4.55;;;29.90;81.50;;;;;;6130836;23;20009;-83
2022/08/21 09:50:33;;;;;;;8.05;4.38;;;28.80;81.50;;;;;;6130644;23;20010;-83
2022/08/21 09:53:00;;;;;;;6.50;3.85;;;27.20;85.60;;;;;;6131131;23;20079;-83
2022/08/21 09:58:44;;;;;;;9.05;4.28;;;27.80;85.50;;;;;;6155928;23;20020;-83
2022/08/21 10:01:22;;;;;;;7.47;4.72;;;27.70;86.00;;;;;;6156135;23;20024;-83
2022/08/21 10:03:48;;;;;;;7.95;3.85;;;26.60;87.40;;;;;;6131132;23;20048;-83
2022/08/21 10:06:27;;;;;;;7.70;3.83;;;26.00;89.10;;;;;;6132061;23;20056;-83
2022/08/21 10:09:06;;;;;;;7.97;4.07;;;26.90;90.10;;;;;;6131885;23;20014;-84
2022/08/21 10:11:34;;;;;;;5.85;3.90;;;27.80;86.20;;;;;;6156303;23;20382;-83
2022/08/21 10:14:24;;;;;;;8.07;3.92;;;27.90;86.00;;;;;;6156036;23;20002;-84
2022/08/21 10:17:01;;;;;;;8.57;3.85;;;28.50;85.40;;;;;;6155389;23;20012;-84
2022/08/21 10:19:49;;;;;;;5.50;3.88;;;28.90;82.20;;;;;;6131336;23;20010;-83
2022/08/21 10:22:29;;;;;;;6.70;4.40;;;28.20;82.00;;;;;;6155993;23;20009;-82
2022/08/21 10:25:28;;;;;;;7.75;3.85;;;28.10;80.10;;;;;;6131389;23;20016;-84
2022/08/21 10:28:31;;;;;;;9.27;4.10;;;28.50;82.70;;;;;;6156442;23;20076;-83
2022/08/21 10:31:26;;;;;;;5.80;3.60;;;28.70;80.30;;;;;;6118052;23;20013;-83
2022/08/21 10:34:12;;;;;;;8.93;3.78;;;28.90;79.80;;;;;;6156858;23;20005;-83
2022/08/21 10:36:56;;;;;;;8.15;3.90;;;28.90;75.80;;;;;;6131948;23;20009;-84
2022/08/21 10:39:28;;;;;;;8.15;3.88;;;29.80;74.70;;;;;;6131659;23;20017;-83
2022/08/21 10:42:13;;;;;;;11.63;3.80;;;29.90;75.00;;;;;;6157395;23;20010;-83
2022/08/21 10:45:03;;;;;;;5.97;4.03;;;30.00;75.70;;;;;;6131991;23;20319;-84
2022/08/21 10:47:42;;;;;;;8.65;4.60;;;29.10;75.80;;;;;;6132115;23;20020;-83
2022/08/21 10:50:50;;;;;;;8.25;5.63;;;28.90;76.70;;;;;;6131149;23;20013;-83
2022/08/21 10:53:52;;;;;;;9.82;4.07;;;29.60;76.00;;;;;;6120921;23;20100;-83
2022/08/21 10:56:24;;;;;;;7.07;3.67;;;29.00;75.30;;;;;;6133260;23;20095;-83
2022/08/21 10:59:05;;;;;;;10.18;4.05;;;28.80;75.80;;;;;;6156309;23;20016;-84
2022/08/21 11:01:46;;;;;;;8.02;4.20;;;28.70;75.40;;;;;;6155942;23;20013;-84
2022/08/21 11:04:26;;;;;;;7.38;3.67;;;28.80;76.40;;;;;;6130906;23;20464;-83
2022/08/21 11:07:12;;;;;;;5.90;3.70;;;28.80;75.50;;;;;;6131145;23;20015;-84
2022/08/21 11:09:40;;;;;;;11.55;3.78;;;29.40;75.70;;;;;;6130967;23;20052;-83
2022/08/21 11:12:42;;;;;;;7.18;4.13;;;29.80;73.50;;;;;;6131626;23;20016;-84
2022/08/21 11:15:30;;;;;;;7.60;3.35;;;29.50;73.80;;;;;;6149966;23;20387;-83
2022/08/21 11:18:20;;;;;;;7.90;3.35;;;29.80;70.00;;;;;;6156291;23;20006;-84
2022/08/21 11:20:52;;;;;;;8.50;3.58;;;29.60;68.60;;;;;;6156492;23;20396;-84
2022/08/21 11:23:24;;;;;;;6.13;3.15;;;29.40;71.20;;;;;;6156325;23;20083;-85
2022/08/21 11:26:15;;;;;;;7.88;3.92;;;29.50;70.80;;;;;;6131521;23;20013;-84
2022/08/21 11:28:54;;;;;;;8.75;4.00;;;29.40;71.70;;;;;;6155633;23;20041;-84
2022/08/21 11:31:41;;;;;;;7.53;3.50;;;29.50;71.70;;;;;;6131102;23;20341;-84
2022/08/21 11:34:26;;;;;;;11.30;4.00;;;29.50;71.70;;;;;;6155638;23;20005;-84
2022/08/21 11:37:18;;;;;;;7.53;3.75;;;29.80;69.80;;;;;;6155745;23;20104;-84
2022/08/21 11:40:02;;;;;;;5.68;3.70;;;30.80;69.30;;;;;;6131205;23;20033;-84
2022/08/21 11:42:53;;;;;;;7.00;3.42;;;31.40;64.70;;;;;;6157718;23;20034;-84
2022/08/21 11:45:22;;;;;;;7.57;3.65;;;31.40;65.10;;;;;;6132521;23;20116;-85
2022/08/21 11:48:13;;;;;;;8.98;3.92;;;32.10;64.00;;;;;;6157548;23;20005;-85
2022/08/21 11:50:40;;;;;;;8.57;3.38;;;32.90;62.50;;;;;;6133005;23;20006;-84
2022/08/21 11:53:20;;;;;;;6.00;3.35;;;33.20;63.00;;;;;;6132749;23;20067;-84
2022/08/21 11:59:42;;;;;;;12.73;3.75;;;31.30;63.40;;;;;;6159599;23;20072;-84
2022/08/21 12:02:24;;;;;;;6.65;3.42;;;30.60;64.10;;;;;;6157669;23;20006;-84
2022/08/21 12:05:01;;;;;;;8.80;3.85;;;29.90;65.60;;;;;;6132918;23;20052;-84
2022/08/21 12:07:33;;;;;;;5.18;3.50;;;29.20;66.30;;;;;;6157869;23;20028;-84
2022/08/21 12:10:00;;;;;;;7.55;3.97;;;28.70;66.60;;;;;;6157773;23;20005;-84
2022/08/21 12:12:35;;;;;;;8.60;4.13;;;28.20;67.30;;;;;;6133178;23;20013;-84
2022/08/21 12:15:19;;;;;;;5.80;3.72;;;27.70;69.00;;;;;;6157760;23;20008;-84
2022/08/21 12:18:23;;;;;;;5.30;2.97;;;27.00;68.50;;;;;;6133491;23;20706;-84
2022/08/21 12:21:18;;;;;;;4.75;3.30;;;27.60;69.50;;;;;;6157755;23;20010;-84
2022/08/21 12:23:44;;;;;;;7.45;3.38;;;28.20;67.80;;;;;;6157235;23;20096;-85
2022/08/21 12:26:12;;;;;;;5.70;3.63;;;29.10;65.20;;;;;;6131469;23;20728;-84
2022/08/21 12:28:39;;;;;;;7.70;3.50;;;29.40;64.40;;;;;;6155236;23;20606;-84
2022/08/21 12:31:28;;;;;;;4.53;3.10;;;29.10;65.40;;;;;;6130665;23;20140;-84
2022/08/21 12:33:58;;;;;;;5.05;3.40;;;28.60;66.20;;;;;;6130252;23;20016;-84
2022/08/21 12:36:41;;;;;;;9.25;3.63;;;28.30;65.40;;;;;;6130102;23;20009;-84
2022/08/21 12:39:46;;;;;;;7.80;3.88;;;28.20;64.30;;;;;;6130062;23;20145;-84
2022/08/21 12:42:22;;;;;;;6.07;3.80;;;27.50;64.20;;;;;;6154747;23;20006;-84
2022/08/21 12:44:58;;;;;;;8.18;3.88;;;27.40;65.60;;;;;;6129817;23;20017;-84
2022/08/21 12:47:34;;;;;;;9.40;4.25;;;27.00;67.40;;;;;;6153069;23;20025;-84
2022/08/21 12:50:11;;;;;;;7.55;3.83;;;26.50;68.70;;;;;;6154724;23;20625;-84
2022/08/21 12:52:45;;;;;;;9.77;4.30;;;26.10;69.10;;;;;;6129924;23;20402;-84
2022/08/21 12:55:15;;;;;;;6.18;3.25;;;26.00;69.30;;;;;;6129598;23;20014;-84
2022/08/21 12:57:41;;;;;;;6.72;3.88;;;26.20;68.90;;;;;;6130025;23;20049;-84
2022/08/21 13:00:14;;;;;;;8.27;3.40;;;26.80;68.60;;;;;;6130402;23;20005;-84
2022/08/21 13:02:48;;;;;;;6.63;3.58;;;27.20;68.00;;;;;;6130176;23;20009;-84
2022/08/21 13:05:19;;;;;;;10.02;3.78;;;27.40;66.20;;;;;;6130344;23;20510;-84
2022/08/21 13:07:47;;;;;;;7.45;3.70;;;27.60;65.70;;;;;;6156454;23;20006;-84
2022/08/21 13:10:24;;;;;;;9.00;3.05;;;28.00;65.40;;;;;;6129260;23;20001;-84
2022/08/21 13:12:53;;;;;;;7.03;3.58;;;28.90;66.60;;;;;;6154374;23;20014;-84
2022/08/21 13:15:26;;;;;;;6.25;3.13;;;29.10;63.60;;;;;;6129537;23;20016;-84
2022/08/21 13:17:52;;;;;;;7.97;3.53;;;29.60;63.30;;;;;;6130000;23;20457;-84
2022/08/21 13:20:23;;;;;;;6.50;3.25;;;28.90;60.90;;;;;;6154606;23;20006;-84
2022/08/21 13:22:48;;;;;;;;;;;28.80;61.90;;;;;;6130577;23;20133;-84